createdAt,value
2019-01-16T00:00:08.862Z,38.10
2019-01-16T00:03:39.477Z,40.77
2019-01-16T00:07:02.446Z,34.97
2019-01-16T00:10:27.652Z,28.10
2019-01-16T00:13:55.456Z,29.00
2019-01-16T00:17:11.472Z,35.90
2019-01-16T00:20:51.982Z,46.87
2019-01-16T00:24:07.846Z,31.87
2019-01-16T00:27:38.986Z,28.27
2019-01-16T00:31:07.343Z,28.90
2019-01-16T00:34:25.828Z,35.83
2019-01-16T00:38:06.484Z,30.60
2019-01-16T00:41:44.026Z,39.53
2019-01-16T00:45:09.000Z,32.83
2019-01-16T00:48:36.730Z,35.00
2019-01-16T00:52:04.752Z,23.63
2019-01-16T00:55:25.899Z,27.90
2019-01-16T00:59:03.226Z,35.20
2019-01-16T01:02:20.214Z,31.30
2019-01-16T01:05:47.804Z,33.37
2019-01-16T01:09:12.752Z,35.53
2019-01-16T01:12:37.841Z,28.57
2019-01-16T01:16:12.299Z,42.73
2019-01-16T01:19:30.650Z,43.50
2019-01-16T01:23:00.948Z,26.37
2019-01-16T01:26:18.066Z,31.10
2019-01-16T01:29:43.153Z,37.53
2019-01-16T01:33:14.558Z,35.30
2019-01-16T01:36:44.015Z,29.40
2019-01-16T01:40:04.699Z,20.93
2019-01-16T01:43:25.570Z,13.77
2019-01-16T01:46:51.186Z,36.17
2019-01-16T01:50:09.643Z,25.97
2019-01-16T01:53:50.035Z,41.70
2019-01-16T01:57:10.686Z,26.83
2019-01-16T02:00:49.244Z,34.40
2019-01-16T02:04:10.328Z,30.67
2019-01-16T02:07:31.338Z,33.57
2019-01-16T02:10:52.184Z,24.53
2019-01-16T02:14:21.455Z,25.53
2019-01-16T02:17:49.762Z,34.60
2019-01-16T02:21:29.953Z,23.40
2019-01-16T02:24:52.123Z,27.30
2019-01-16T02:28:13.546Z,24.37
2019-01-16T02:31:42.901Z,33.13
2019-01-16T02:35:05.042Z,23.47
2019-01-16T02:38:26.011Z,34.17
2019-01-16T02:41:50.844Z,28.33
2019-01-16T02:45:22.124Z,25.97
2019-01-16T02:48:46.920Z,40.17
2019-01-16T02:52:11.938Z,34.90
2019-01-16T02:55:36.854Z,40.37
2019-01-16T02:59:02.389Z,39.17
2019-01-16T03:02:42.679Z,29.80
2019-01-16T03:06:00.076Z,26.40
2019-01-16T03:09:36.210Z,30.37
2019-01-16T03:12:56.990Z,26.60
2019-01-16T03:16:08.671Z,29.63
2019-01-16T03:19:26.974Z,29.03
2019-01-16T03:22:55.117Z,27.03
2019-01-16T03:26:23.384Z,34.10
2019-01-16T03:30:01.057Z,32.13
2019-01-16T03:33:21.717Z,38.47
2019-01-16T03:36:42.509Z,34.53
2019-01-16T03:39:59.823Z,35.23
2019-01-16T03:43:17.934Z,29.00
2019-01-16T03:46:30.552Z,30.37
2019-01-16T03:53:30.401Z,35.60
2019-01-16T03:57:00.909Z,32.90
2019-01-16T04:00:24.890Z,41.93
2019-01-16T04:03:59.086Z,32.23
2019-01-16T04:07:24.790Z,40.77
2019-01-16T04:10:39.755Z,43.83
2019-01-16T04:14:00.522Z,27.70
2019-01-16T04:17:21.300Z,33.20
2019-01-16T04:20:58.569Z,44.73
2019-01-16T04:24:19.322Z,23.33
2019-01-16T04:27:32.675Z,25.37
2019-01-16T04:30:53.852Z,35.97
2019-01-16T04:34:16.015Z,24.33
2019-01-16T04:37:33.784Z,29.10
2019-01-16T04:40:49.382Z,33.07
2019-01-16T04:44:14.542Z,44.90
2019-01-16T04:47:39.449Z,47.30
2019-01-16T04:50:59.572Z,41.67
2019-01-16T04:54:18.913Z,38.87
2019-01-16T04:57:40.121Z,49.97
2019-01-16T05:01:05.066Z,54.93
2019-01-16T05:04:30.062Z,49.13
2019-01-16T05:08:01.127Z,43.13
2019-01-16T05:11:17.250Z,51.83
2019-01-16T05:14:31.324Z,44.27
2019-01-16T05:17:53.593Z,42.70
2019-01-16T05:21:14.467Z,47.90
2019-01-16T05:24:36.758Z,38.07
2019-01-16T05:27:58.629Z,37.50
2019-01-16T05:31:11.078Z,28.57
2019-01-16T05:34:36.131Z,34.00
2019-01-16T05:37:51.639Z,25.63
2019-01-16T05:41:13.922Z,41.57
2019-01-16T05:44:38.262Z,25.17
2019-01-16T05:47:48.788Z,28.90
2019-01-16T05:51:17.192Z,25.63
2019-01-16T05:54:38.305Z,27.13
2019-01-16T05:58:07.816Z,19.60
2019-01-16T06:01:34.095Z,17.73
2019-01-16T06:04:51.152Z,22.63
2019-01-16T06:08:19.125Z,23.37
2019-01-16T06:11:37.549Z,27.87
2019-01-16T06:15:15.052Z,26.57
2019-01-16T06:18:38.803Z,26.60
2019-01-16T06:22:12.876Z,16.87
2019-01-16T06:25:33.799Z,12.70
2019-01-16T06:29:02.025Z,11.63
2019-01-16T06:32:31.492Z,11.40
2019-01-16T06:36:06.421Z,15.77
2019-01-16T06:39:43.832Z,21.30
2019-01-16T06:43:15.213Z,15.83
2019-01-16T06:46:35.806Z,8.70
2019-01-16T06:50:16.467Z,16.63
2019-01-16T06:53:32.458Z,12.67
2019-01-16T06:57:03.473Z,20.23
2019-01-16T07:00:28.373Z,18.80
2019-01-16T07:04:05.861Z,12.67
2019-01-16T07:07:37.532Z,12.80
2019-01-16T07:10:58.540Z,18.70
2019-01-16T07:14:19.562Z,11.57
2019-01-16T07:17:50.785Z,16.67
2019-01-16T07:21:31.273Z,13.10
2019-01-16T07:25:05.618Z,13.57
2019-01-16T07:28:19.629Z,9.70
2019-01-16T07:31:48.098Z,8.87
2019-01-16T07:35:19.120Z,5.17
2019-01-16T07:38:41.282Z,7.10
2019-01-16T07:42:09.164Z,7.57
2019-01-16T07:45:46.865Z,7.57
2019-01-16T07:49:15.078Z,6.37
2019-01-16T07:52:38.828Z,7.10
2019-01-16T07:56:05.826Z,7.60
2019-01-16T07:59:30.501Z,4.40
2019-01-16T08:02:51.184Z,4.37
2019-01-16T08:06:08.692Z,3.10
2019-01-16T08:09:31.098Z,4.47
2019-01-16T08:13:11.790Z,4.27
2019-01-16T08:16:40.049Z,2.30
2019-01-16T08:20:00.957Z,3.53
2019-01-16T08:23:41.657Z,3.60
2019-01-16T08:27:04.884Z,37.40
2019-01-16T08:30:21.339Z,51.13
2019-01-16T08:33:49.884Z,192.67
2019-01-16T08:37:10.944Z,185.83
2019-01-16T08:40:33.290Z,29.10
2019-01-16T08:44:02.283Z,44.43
2019-01-16T08:47:33.411Z,59.97
2019-01-16T08:51:02.090Z,111.27
2019-01-16T08:54:23.211Z,62.63
2019-01-16T08:57:57.524Z,38.63
2019-01-16T09:01:34.760Z,48.50
2019-01-16T09:04:55.623Z,81.33
2019-01-16T09:08:20.951Z,59.80
2019-01-16T09:11:49.211Z,68.53
2019-01-16T09:15:14.017Z,57.77
2019-01-16T09:18:45.325Z,66.30
2019-01-16T09:22:02.142Z,50.40
2019-01-16T09:25:24.763Z,50.93
2019-01-16T09:28:45.464Z,55.13
2019-01-16T09:32:19.592Z,41.10
2019-01-16T09:35:41.713Z,77.27
2019-01-16T09:39:02.508Z,65.90
2019-01-16T09:42:25.254Z,64.67
2019-01-16T09:46:02.528Z,64.47
2019-01-16T09:49:28.657Z,64.03
2019-01-16T09:52:56.969Z,63.23
2019-01-16T09:56:18.233Z,54.87
2019-01-16T09:59:49.362Z,61.20
2019-01-16T10:03:30.079Z,67.33
2019-01-16T10:06:49.486Z,57.10
2019-01-16T10:10:12.098Z,63.73
2019-01-16T10:13:23.565Z,67.37
2019-01-16T10:16:44.541Z,52.93
2019-01-16T10:19:55.259Z,52.50
2019-01-16T10:23:32.800Z,44.93
2019-01-16T10:26:42.181Z,49.73
2019-01-16T10:29:57.828Z,79.37
2019-01-16T10:33:18.727Z,62.77
2019-01-16T10:36:39.496Z,65.47
2019-01-16T10:40:03.616Z,65.47
2019-01-16T10:43:29.059Z,67.17
2019-01-16T10:47:06.142Z,53.23
2019-01-16T10:50:28.430Z,62.80
2019-01-16T10:54:05.439Z,73.77
2019-01-16T10:57:20.779Z,55.30
2019-01-16T11:00:52.108Z,65.93
2019-01-16T11:04:13.084Z,63.40
2019-01-16T11:07:44.269Z,59.47
2019-01-16T11:11:16.210Z,69.57
2019-01-16T11:14:37.497Z,50.77
2019-01-16T11:21:11.429Z,68.47
2019-01-16T11:24:33.708Z,63.03
2019-01-16T11:28:01.819Z,60.13
2019-01-16T11:31:36.116Z,61.70
2019-01-16T11:34:57.220Z,51.80
2019-01-16T11:38:33.590Z,76.10
2019-01-16T11:41:54.675Z,54.47
2019-01-16T11:45:22.757Z,49.77
2019-01-16T11:49:03.522Z,48.90
2019-01-16T11:52:31.719Z,54.27
2019-01-16T11:55:56.692Z,56.80
2019-01-16T11:59:17.383Z,54.20
2019-01-16T12:02:38.616Z,49.17
2019-01-16T12:05:59.895Z,52.00
2019-01-16T12:09:22.584Z,46.83
2019-01-16T12:12:44.840Z,51.73
2019-01-16T12:16:25.492Z,76.37
2019-01-16T12:19:37.029Z,52.80
2019-01-16T12:22:46.880Z,55.30
2019-01-16T12:26:13.835Z,56.73
2019-01-16T12:29:34.107Z,43.20
2019-01-16T12:32:43.370Z,49.80
2019-01-16T12:36:00.774Z,52.30
2019-01-16T12:39:24.785Z,58.93
2019-01-16T12:42:42.336Z,41.97
2019-01-16T12:45:55.094Z,49.37
2019-01-16T12:49:17.757Z,47.70
2019-01-16T12:52:39.053Z,47.77
2019-01-16T12:55:59.832Z,42.50
2019-01-16T12:59:33.795Z,52.03
2019-01-16T13:02:49.354Z,55.73
2019-01-16T13:09:45.543Z,38.70
2019-01-16T13:13:06.370Z,56.63
2019-01-16T13:16:22.370Z,60.07
2019-01-16T13:19:56.640Z,37.97
2019-01-16T13:23:27.630Z,42.40
2019-01-16T13:26:43.465Z,40.63
2019-01-16T13:30:08.389Z,40.77
2019-01-16T13:33:28.448Z,43.27
2019-01-16T13:36:41.376Z,48.40
2019-01-16T13:40:01.383Z,51.97
2019-01-16T13:43:42.658Z,47.73
2019-01-16T13:47:07.704Z,37.13
2019-01-16T13:50:28.163Z,46.53
2019-01-16T13:53:53.172Z,59.10
2019-01-16T13:57:18.310Z,47.30
2019-01-16T14:00:40.939Z,63.30
2019-01-16T14:03:55.010Z,45.97
2019-01-16T14:07:15.970Z,47.63
2019-01-16T14:10:47.724Z,56.40
2019-01-16T14:14:08.487Z,44.00
2019-01-16T14:17:22.604Z,41.80
2019-01-16T14:20:41.833Z,35.03
2019-01-16T14:24:06.975Z,45.57
2019-01-16T14:27:29.657Z,50.37
2019-01-16T14:31:06.857Z,53.13
2019-01-16T14:34:31.796Z,48.93
2019-01-16T14:37:52.540Z,47.87
2019-01-16T14:41:23.496Z,46.70
2019-01-16T14:44:52.595Z,36.37
2019-01-16T14:48:05.807Z,53.43
2019-01-16T14:51:20.800Z,30.27
2019-01-16T14:54:52.090Z,47.10
2019-01-16T14:58:12.735Z,50.73
2019-01-16T15:01:36.519Z,55.47
2019-01-16T15:05:09.324Z,45.13
2019-01-16T15:08:31.545Z,46.50
2019-01-16T15:11:43.688Z,46.83
2019-01-16T15:15:14.634Z,37.87
2019-01-16T15:18:35.669Z,38.60
2019-01-16T15:21:57.849Z,32.70
2019-01-16T15:25:12.359Z,53.07
2019-01-16T15:28:33.387Z,48.63
2019-01-16T15:32:13.800Z,35.23
2019-01-16T15:35:38.895Z,47.57
2019-01-16T15:39:01.134Z,35.23
2019-01-16T15:42:27.387Z,37.33
2019-01-16T15:45:50.028Z,45.13
2019-01-16T15:49:11.328Z,33.57
2019-01-16T15:52:30.080Z,37.90
2019-01-16T15:55:43.851Z,43.93
2019-01-16T15:59:16.356Z,34.97
2019-01-16T16:02:32.080Z,46.43
2019-01-16T16:05:56.466Z,28.40
2019-01-16T16:09:21.357Z,30.60
2019-01-16T16:12:46.497Z,38.13
2019-01-16T16:16:14.689Z,37.03
2019-01-16T16:19:48.779Z,37.73
2019-01-16T16:23:17.152Z,47.17
2019-01-16T16:26:45.196Z,47.03
2019-01-16T16:30:06.290Z,23.43
2019-01-16T16:33:21.006Z,48.23
2019-01-16T16:36:38.812Z,33.23
2019-01-16T16:40:03.789Z,47.70
2019-01-16T16:43:28.596Z,35.50
2019-01-16T16:46:41.856Z,28.83
2019-01-16T16:50:04.154Z,33.10
2019-01-16T16:53:24.052Z,27.30
2019-01-16T16:56:52.407Z,36.20
2019-01-16T17:00:13.302Z,43.50
2019-01-16T17:03:48.275Z,47.03
2019-01-16T17:06:58.506Z,40.20
2019-01-16T17:10:35.856Z,35.63
2019-01-16T17:14:08.586Z,29.10
2019-01-16T17:17:30.616Z,39.43
2019-01-16T17:20:51.930Z,43.83
2019-01-16T17:24:05.277Z,40.67
2019-01-16T17:27:31.330Z,39.30
2019-01-16T17:30:53.663Z,39.57
2019-01-16T17:34:06.973Z,50.80
2019-01-16T17:37:28.916Z,38.93
2019-01-16T17:40:56.848Z,38.33
2019-01-16T17:44:17.584Z,46.90
2019-01-16T17:47:38.254Z,31.47
2019-01-16T17:51:12.407Z,35.37
2019-01-16T17:54:40.610Z,32.07
2019-01-16T17:58:06.057Z,42.87
2019-01-16T18:01:23.420Z,51.80
2019-01-16T18:04:46.139Z,37.03
2019-01-16T18:08:07.514Z,34.17
2019-01-16T18:11:36.189Z,31.90
2019-01-16T18:14:53.828Z,34.73
2019-01-16T18:18:19.063Z,41.63
2019-01-16T18:21:41.870Z,50.40
2019-01-16T18:24:53.637Z,42.40
2019-01-16T18:28:14.448Z,47.70
2019-01-16T18:31:35.263Z,45.20
2019-01-16T18:35:00.497Z,40.90
2019-01-16T18:38:21.245Z,46.10
2019-01-16T18:41:45.357Z,43.40
2019-01-16T18:45:14.081Z,39.70
2019-01-16T18:48:36.645Z,34.73
2019-01-16T18:52:00.114Z,45.73
2019-01-16T18:55:32.132Z,48.87
2019-01-16T18:58:49.954Z,31.10
2019-01-16T19:02:10.973Z,44.67
2019-01-16T19:05:27.219Z,40.13
2019-01-16T19:09:04.765Z,23.17
2019-01-16T19:12:26.843Z,28.37
2019-01-16T19:15:44.294Z,33.73
2019-01-16T19:19:01.062Z,34.30
2019-01-16T19:22:18.407Z,24.30
2019-01-16T19:25:40.659Z,34.17
2019-01-16T19:29:06.521Z,33.23
2019-01-16T19:32:18.046Z,40.00
2019-01-16T19:35:40.671Z,46.13
2019-01-16T19:38:53.921Z,36.60
2019-01-16T19:42:15.923Z,28.73
2019-01-16T19:45:38.435Z,32.43
2019-01-16T19:48:59.477Z,34.53
2019-01-16T19:52:28.007Z,32.33
2019-01-16T19:55:56.497Z,21.23
2019-01-16T19:59:38.059Z,22.97
2019-01-16T20:03:00.734Z,23.10
2019-01-16T20:06:13.528Z,24.73
2019-01-16T20:09:34.479Z,21.03
2019-01-16T20:13:11.754Z,31.23
2019-01-16T20:16:40.434Z,15.40
2019-01-16T20:20:11.669Z,16.97
2019-01-16T20:23:48.890Z,19.43
2019-01-16T20:27:17.226Z,21.30
2019-01-16T20:30:42.487Z,23.07
2019-01-16T20:34:01.290Z,22.03
2019-01-16T20:37:26.351Z,30.73
2019-01-16T20:40:51.650Z,24.72
2019-01-16T20:44:05.449Z,24.53
2019-01-16T20:47:26.376Z,29.23
2019-01-16T20:50:47.665Z,16.03
2019-01-16T20:53:59.316Z,20.93
2019-01-16T20:57:36.929Z,24.03
2019-01-16T21:00:58.288Z,21.43
2019-01-16T21:04:19.482Z,25.93
2019-01-16T21:07:33.316Z,15.80
2019-01-16T21:10:45.874Z,19.20
2019-01-16T21:14:08.183Z,24.20
2019-01-16T21:17:29.333Z,26.30
2019-01-16T21:20:57.780Z,20.43
2019-01-16T21:24:23.354Z,23.70
2019-01-16T21:27:45.852Z,31.00
2019-01-16T21:31:01.702Z,33.17
2019-01-16T21:34:22.733Z,18.10
2019-01-16T21:37:36.073Z,15.37
2019-01-16T21:41:04.442Z,16.67
2019-01-16T21:44:27.176Z,18.07
2019-01-16T21:47:58.454Z,28.00
2019-01-16T21:51:39.370Z,25.30
2019-01-16T21:55:00.354Z,20.50
2019-01-16T21:58:22.835Z,12.77
2019-01-16T22:01:37.988Z,24.07
2019-01-16T22:05:15.330Z,28.30
2019-01-16T22:08:28.924Z,24.83
2019-01-16T22:11:44.344Z,38.53
2019-01-16T22:14:57.822Z,22.93
2019-01-16T22:18:22.049Z,22.17
2019-01-16T22:21:38.967Z,17.77
2019-01-16T22:25:00.223Z,14.13
2019-01-16T22:28:29.629Z,21.77
2019-01-16T22:31:52.015Z,19.07
2019-01-16T22:35:20.670Z,19.33
2019-01-16T22:38:41.705Z,12.40
2019-01-16T22:42:02.683Z,18.17
2019-01-16T22:45:43.837Z,14.13
2019-01-16T22:48:54.488Z,22.40
2019-01-16T22:52:15.456Z,11.20
2019-01-16T22:55:41.295Z,20.30
2019-01-16T22:59:01.439Z,19.90
2019-01-16T23:02:33.543Z,10.37
2019-01-16T23:05:51.720Z,14.90
2019-01-16T23:09:14.212Z,20.30
2019-01-16T23:12:34.977Z,22.67
2019-01-16T23:15:48.847Z,13.83
2019-01-16T23:19:26.337Z,19.50
2019-01-16T23:22:41.078Z,24.23
2019-01-16T23:26:12.370Z,12.83
2019-01-16T23:29:30.694Z,17.20
2019-01-16T23:32:53.053Z,16.30
2019-01-16T23:36:15.354Z,21.90
2019-01-16T23:39:37.599Z,19.23
2019-01-16T23:42:50.529Z,22.97
2019-01-16T23:46:11.279Z,21.97
2019-01-16T23:49:36.431Z,21.00
2019-01-16T23:52:46.732Z,18.27
2019-01-16T23:56:23.970Z,26.73
2019-01-16T23:59:55.285Z,34.87
